Nearby METAR Reports

 

CWGT - Sisters Island (Auto)
Distance from station: NE 39km
Updated: 2017-12-17 01:00

 Wind from E
Wind: E 46 km/h
Temperature: 6°C
Wind Chill: 1°C
Dew Point: 4°C
Humidity: 87%
2017/12/17 09:00 CWGT 170900Z AUTO 10025KT 06/04 RMK AO1 PK WND 10031/0811 SLP199 T00620043 55005
CWGB - Ballenas Island (Auto)
Distance from station: ENE 47km
Updated: 2017-12-17 01:00

 Wind from ESE
Wind: ESE 46 km/h
Temperature: 7°C
Wind Chill: 2°C
Dew Point: 6°C
Humidity: 93%
2017/12/17 09:00 CWGB 170900Z AUTO 11025KT 07/06 RMK AO1 2PAST HR 5006 PK WND 11030/0806 SLP201 P0001 T00660057 50012
CYQQ - CFB Comox
Distance from station: N 55km
Updated: 2017-12-17 01:00
Light rain, Overcast
Light rain, Overcast
 Wind from SE
Wind: SE 35 km/h, Gust: 44 km/h
Temperature: 6°C
Wind Chill: 1°C
Dew Point: 6°C
Humidity: 100%
Barometer: 1020.3 hPa
Summary: Light rain
Clouds: Overcast
Visibility: 32 km
Cloud details: Partly cloudy 213 m
Mostly cloudy 396 m
Overcast 732 m
2017/12/17 09:00 CYQQ 170900Z 13019G24KT 20SM -RA SCT007 BKN013 OVC024 06/06 A3013 RMK SF4SC1SC3 SLP204
 
CYPW - Powell River Airport
Distance from station: NNE 69km
Updated: 2017-12-16 19:00
NOT Current
Light rain, Mist, Overcast
Light rain, Mist, Overcast
 Wind from E
Wind: E 22 km/h, Gust: 37 km/h
Temperature: 3°C
Wind Chill: -2°C
Dew Point: 2°C
Humidity: 93%
Barometer: 1022 hPa
Summary: Light rain, Mist
Clouds: Overcast
Visibility: 6 km
Cloud details: Few Clouds 91 m
Few Clouds 274 m
Mostly cloudy 1128 m
Overcast 1920 m
2017/12/17 03:00 CYPW 170300Z 09012G20KT 4SM -RA BR FEW003 FEW009 BKN037 OVC063 03/02 A3018 RMK SF1SF1NS5SC2 SF TR LAST STFD OBS/NEXT171500UTC SLP228
CYCD - Nanaimo Airport
Distance from station: ESE 70km
Updated: 2017-12-16 21:00
NOT Current
Light rain, Mist, Overcast
Light rain, Mist, Overcast
 Wind from ESE
Wind: ESE 6 km/h
Temperature: 4°C
Dew Point: 4°C
Humidity: 100%
Barometer: 1022.4 hPa
Summary: Light rain, Mist
Clouds: Overcast
Visibility: 5 km
Cloud details: Mostly cloudy 244 m
Overcast 1219 m
2017/12/17 05:00 CYCD 170500Z 11003KT 090V220 3SM -RA BR BKN008 OVC040 04/04 A3019 RMK SF6SC2 LAST OBS/NEXT 171400 UTC SLP225
CYAZ - Tofino Airport
Distance from station: WSW 73km
Updated: 2017-12-16 17:00
NOT Current

 
2017/12/17 01:00 CYAZ 170100Z CCA 08005KT 10SM -RA FEW014 OVC025 06/05 A3020 RMK SF2NS6 LAST STFD OBS/NEXT 171500UTC SLP230
 
CWEL - Entrance Island (Auto)
Distance from station: E 73km
Updated: 2017-12-12 05:00
NOT Current

 Wind from SW
Wind: SW 4 km/h
Temperature: 6°C
Dew Point: 4°C
Humidity: 87%
2017/12/12 13:00 CWEL 121300Z AUTO 22002KT 06/04 RMK AO1 SLP307 T00590041 55000
CYBL - Campbell River Airport
Distance from station: NNW 88km
Updated: 2017-12-16 21:00
NOT Current
Light rain, Mist, Overcast
Light rain, Mist, Overcast
 Wind from SE
Wind: SE 15 km/h
Temperature: 5°C
Wind Chill: 2°C
Dew Point: 4°C
Humidity: 93%
Barometer: 1019.6 hPa
Summary: Light rain, Mist
Clouds: Overcast
Visibility: 3 km
Cloud details: Overcast 91 m
2017/12/17 05:00 CYBL 170500Z 13008KT 2SM -RA BR OVC003 05/04 A3011 RMK FG2SF6 LAST OBS/NEXT 171400 UTC SLP202
CWKH - Malahat Highway (Auto)
Distance from station: SE 116km
Updated: 2017-12-17 01:00

 
Temperature: 4°C
Dew Point: 3°C
Humidity: 93%
2017/12/17 09:00 CWKH 170900Z AUTO 04/03 RMK AO1 2PAST HR 8013 SLP199 P0001 T00360026 50006
 
CYVR - Vancouver Intl Airport
Distance from station: E 118km
Updated: 2017-12-17 01:00
Light rain, Overcast
Light rain, Overcast
 Wind from E
Wind: E 13 km/h
Temperature: 6°C
Wind Chill: 3°C
Dew Point: 6°C
Humidity: 100%
Barometer: 1022.4 hPa
Summary: Light rain
Clouds: Overcast
Visibility: 13 km
Cloud details: Partly cloudy 91 m
Mostly cloudy 183 m
Overcast 823 m
2017/12/17 09:00 CYVR 170900Z 10007KT 8SM -RA SCT003 BKN006 OVC027 06/06 A3019 RMK SC3SC2SC3 SLP226
CYYJ - Victoria Intl Airport
Distance from station: ESE 120km
Updated: 2017-12-17 01:00
Light rain, Mist, Overcast
Light rain, Mist, Overcast
 Wind from SSE
Wind: SSE 11 km/h
Temperature: 6°C
Wind Chill: 4°C
Dew Point: 6°C
Humidity: 100%
Barometer: 1021.3 hPa
Summary: Light rain, Mist
Clouds: Overcast
Visibility: 2 km
Cloud details: Few Clouds 122 m
Mostly cloudy 244 m
Overcast 1067 m
2017/12/17 09:00 CYYJ 170900Z 16006KT 1 1/4SM -RA BR FEW004 BKN008 OVC035 06/06 A3016 RMK SF2ST5SC1 SLP214
CWEB - Estevan Pt. (Auto)
Distance from station: W 129km
Updated: 2017-12-17 01:00

 Wind from ESE
Wind: ESE 17 km/h, Gust: 30 km/h
Temperature: 9°C
Wind Chill: 7°C
Dew Point: 8°C
Humidity: 94%
2017/12/17 09:00 CWEB 170900Z AUTO 12009G16KT 09/08 RMK AO1 7PAST HR 8011 PK WND 12018/0808 SLP176 P0003 T00860079 50062
 
CWQK - Race Rocks (Auto)
Distance from station: SE 138km
Updated: 2017-12-17 01:00

 Wind from NE
Wind: NE 15 km/h
Temperature: 6°C
Wind Chill: 3°C
Dew Point: 5°C
Humidity: 93%
2017/12/17 09:00 CWQK 170900Z AUTO 04008KT 06/05 RMK AO1 SLP209 T00550051 58018
CWAE - Whistler
Distance from station: NE 167km
Updated: 2017-12-16 17:00
NOT Current
Overcast
Overcast
 Wind from S
Wind: S 6 km/h
Temperature: 1°C
Dew Point: 0°C
Humidity: 93%
Barometer: 1021.3 hPa
Clouds: Overcast
Visibility: 19 km
Cloud details: Partly cloudy 244 m
Mostly cloudy 579 m
Overcast 1067 m
2017/12/17 01:00 CWAE 170100Z 18003KT 12SM SCT008 BKN019 OVC035 01/00 A3016 RMK SC3SC3SC2 LAST OBS/NEXT 171500UTC WND ESTD SLP237
CYZT - Port Hardy Airport
Distance from station: NW 244km
Updated: 2017-12-17 01:00
Light rain, Overcast
Light rain, Overcast
 Wind from ESE
Wind: ESE 20 km/h, Gust: 31 km/h
Temperature: 4°C
Wind Chill: -1°C
Dew Point: 3°C
Humidity: 93%
Barometer: 1016.6 hPa
Summary: Light rain
Clouds: Overcast
Visibility: 13 km
Cloud details: Few Clouds 305 m
Overcast 549 m
2017/12/17 09:00 CYZT 170900Z 12011G17KT 8SM -RA FEW010 OVC018 04/03 A3002 RMK SF2SC6 SLP167
 
CWRU - Solander Isl (Auto)
Distance from station: WNW 247km
Updated: 2017-12-17 01:00

 Wind from W
Wind: W 17 km/h
Temperature: 9°C
Wind Chill: 7°C
Dew Point: 9°C
Humidity: 100%
2017/12/17 09:00 CWRU 170900Z AUTO 26009KT 09/09 RMK AO1 6PAST HR 8001 SLP147 P0006 T00900089 50028